Vilanova de Sau





Hora UTC 16:55
Temperatura 29.7 ºC
Humitat 46.8 %
Pressió 1017.2 hPa
Pluja 0.0 mm
Velocitat vent 0.0 km/h
Direcció vent NNE
Radiació solar 292.1 W/m²
Fuel 11.5 %

Dades diàries 2020-07-05



Hora UTC (hivern +1h; estiu +2h)
Temperatura (ºC) Humitat (%) Pressió (hPa) Velocitat vent (km/h) Precipitació (mm) Fuel (%) Radiació solar (W/m²)
Hora UTC Aire Humitat Pressió Vel. Dir. Vel. Max Dir. Intent. màx 5 min. Fuel Rad. Sol.
00:05 16.7 97.2 1021.3 1.8 WSW 1.8 SW 0.0 68.8 0.0
00:10 16.7 97.2 1021.2 0.0 NNE 0.0 SW 0.0 69.4 0.0
00:15 16.6 97.2 1021.2 0.0 NNE 0.0 SW 0.0 70.0 0.0
00:20 16.5 97.3 1021.1 0.0 NNE 0.0 WSW 0.0 70.8 0.0
00:25 16.5 97.4 1021.0 0.0 NNE 0.0 SW 0.0 71.4 0.0
00:30 16.5 97.5 1021.0 0.0 NNE 0.0 SW 0.0 72.0 0.0
00:35 16.6 97.6 1020.9 0.0 NNE 0.0 WSW 0.0 72.7 0.0
00:40 16.5 97.6 1020.8 0.0 NNE 0.0 SW 0.0 73.3 0.0
00:45 16.5 97.7 1020.8 0.0 NNE 0.0 SW 0.0 74.1 0.0
00:50 16.4 97.7 1020.8 0.0 NNE 0.0 SW 0.0 74.8 0.0
00:55 16.3 97.7 1020.8 0.0 NNE 0.0 SW 0.0 75.2 0.0
01:00 16.2 97.6 1020.7 0.0 NNE 0.0 SW 0.0 75.8 0.0
01:05 16.2 97.8 1020.6 0.0 NNE 0.0 SW 0.0 76.5 0.0
01:10 16.3 98.0 1020.6 0.0 NNE 0.0 SW 0.0 77.4 0.0
01:15 16.3 98.0 1020.6 0.0 NNE 0.0 SW 0.0 78.0 0.0
01:20 16.3 98.1 1020.5 0.0 NNE 0.0 SW 0.0 78.8 0.0
01:25 16.3 98.1 1020.5 0.0 NNE 0.0 SW 0.0 79.4 0.0
01:30 16.2 98.0 1020.5 0.0 NNE 0.0 SW 0.0 80.0 0.0
01:35 16.1 98.1 1020.5 0.0 NNE 0.0 SW 0.0 80.7 0.0
01:40 16.1 98.2 1020.4 0.0 NNE 0.0 SW 0.0 81.4 0.0
01:45 16.1 98.2 1020.3 0.0 NNE 0.0 SW 0.0 82.1 0.0
01:50 16.1 98.2 1020.2 0.0 NNE 0.0 SW 0.0 82.7 0.0
01:55 16.1 98.2 1020.2 0.0 NNE 0.0 SW 0.0 83.4 0.0
02:00 15.8 98.1 1020.2 0.0 NNE 0.0 ESE 0.0 83.8 0.0
02:05 15.9 98.4 1020.1 0.0 NNE 0.0 ESE 0.0 84.7 0.0
02:10 15.9 98.3 1020.1 0.0 NNE 0.0 WSW 0.0 85.3 0.0
02:15 15.8 98.3 1020.1 0.0 NNE 0.0 WSW 0.0 85.8 0.0
02:20 15.7 98.2 1020.1 0.0 NNE 0.0 WSW 0.0 86.3 0.0
02:25 15.6 98.2 1020.0 0.0 NNE 0.0 WSW 0.0 86.9 0.0
02:30 15.6 98.5 1020.1 0.0 NNE 0.0 WSW 0.0 87.7 0.0
02:35 15.7 98.5 1020.0 0.0 NNE 0.0 WSW 0.0 88.5 0.0
02:40 15.7 98.6 1020.0 0.0 NNE 0.0 WSW 0.0 89.1 0.0
02:45 15.7 98.5 1020.0 0.0 NNE 0.0 WSW 0.0 89.7 0.0
02:50 15.6 98.5 1019.9 0.0 NNE 0.0 SW 0.0 90.2 0.0
02:55 15.5 98.4 1019.9 0.0 NNE 0.0 SW 0.0 90.7 0.0
03:00 15.4 98.4 1019.9 0.0 NNE 0.0 SW 0.0 91.3 0.0
03:05 15.2 98.4 1020.0 0.0 NNE 0.0 SW 0.0 91.8 0.0
03:10 15.2 98.4 1020.0 0.0 NNE 0.0 SSW 0.0 92.4 0.0
03:15 15.2 98.6 1020.0 0.0 NNE 0.0 SSW 0.0 93.0 0.0
03:20 15.4 98.9 1019.9 0.0 NNE 0.0 SSW 0.0 93.7 0.0
03:25 15.6 98.9 1019.9 0.0 NNE 0.0 WNW 0.0 94.5 0.0
03:30 15.6 98.8 1019.9 0.0 NNE 0.0 WNW 0.0 95.0 0.0
03:35 15.6 98.7 1020.0 0.0 NNE 0.0 WNW 0.0 95.5 0.0
03:40 15.6 98.8 1020.0 0.0 NNE 0.0 WNW 0.0 96.1 0.0
03:45 15.7 98.8 1020.1 0.0 NNE 0.0 SW 0.0 96.6 0.0
03:50 15.9 98.9 1020.1 0.0 NNE 0.0 SW 0.0 97.1 0.0
03:55 15.9 98.8 1020.0 0.0 NNE 0.0 SSW 0.0 97.5 0.0
04:00 16.0 99.0 1020.1 0.0 NNE 0.0 SW 0.0 98.0 0.0
04:05 16.1 98.9 1020.1 0.0 NNE 0.0 SSW 0.0 98.5 0.1
04:10 16.2 98.9 1020.1 0.6 SW 3.4 SW 0.0 98.9 0.3
04:15 16.2 98.8 1020.1 3.0 SW 6.1 SW 0.0 99.5 0.9
04:20 16.1 98.7 1020.1 2.1 SW 6.1 SSW 0.0 99.9 2.2
04:25 16.0 98.8 1020.1 0.0 SE 3.4 SE 0.0 100.3 3.4
04:30 15.9 98.8 1020.1 0.0 NNE 0.0 SSE 0.0 100.8 4.8
04:35 15.8 98.8 1020.1 0.3 ENE 6.1 ENE 0.0 101.3 6.6
04:40 15.6 98.6 1020.1 0.0 NNE 0.0 ENE 0.0 101.6 9.6
04:45 15.4 98.6 1020.2 0.0 NNE 0.0 E 0.0 101.9 27.0
04:50 15.4 98.8 1020.2 0.0 NNE 0.0 E 0.0 102.1 53.3
04:55 15.5 98.5 1020.1 0.0 NNE 0.0 E 0.0 102.1 70.5
05:00 16.0 98.4 1020.2 0.0 NNE 0.0 SW 0.0 102.1 100.8
05:05 16.4 97.8 1020.2 0.0 NNE 0.0 SW 0.0 101.8 96.5
05:10 16.5 97.3 1020.2 0.7 SW 6.1 SW 0.0 101.3 67.9
05:15 16.5 97.3 1020.3 0.7 W 6.1 WNW 0.0 101.1 39.5
05:20 16.5 97.8 1020.3 0.0 NNE 0.0 WNW 0.0 101.2 41.1
05:25 16.5 98.0 1020.2 0.5 ESE 3.4 ESE 0.0 101.4 50.1
05:30 16.3 98.0 1020.3 0.5 ESE 3.4 ESE 0.0 101.3 68.0
05:35 16.2 98.2 1020.2 0.0 S 3.4 S 0.0 101.3 78.7
05:40 16.2 98.3 1020.2 1.0 SSW 6.1 SSW 0.0 101.2 75.9
05:45 16.3 98.3 1020.2 0.0 NNE 0.0 SW 0.0 101.2 67.8
05:50 16.4 98.3 1020.3 0.0 NNE 0.0 SW 0.0 101.2 105.3
05:55 16.6 98.3 1020.3 0.0 NNE 0.0 SSE 0.0 101.0 106.9
06:00 16.6 98.0 1020.3 0.0 NNE 0.0 SSW 0.0 100.5 105.2
06:05 16.8 98.0 1020.3 0.5 NNE 3.4 NE 0.0 100.2 132.1
06:10 16.8 97.8 1020.3 0.0 NNE 3.4 NNE 0.0 99.7 151.9
06:15 16.9 97.8 1020.4 0.1 NNE 3.4 NNE 0.0 99.0 146.0
06:20 17.0 97.8 1020.4 0.1 NE 3.4 NNE 0.0 98.5 155.4
06:25 17.1 97.7 1020.4 0.8 NE 6.1 NE 0.0 97.8 174.2
06:30 17.3 97.6 1020.5 0.0 NNE 0.0 NNE 0.0 97.0 167.2
06:35 17.2 97.3 1020.5 0.0 NNE 0.0 NNE 0.0 96.2 170.4
06:40 17.3 97.3 1020.5 0.0 NNE 0.0 N 0.0 95.6 203.8
06:45 17.3 97.2 1020.6 1.0 NW 6.1 NNW 0.0 94.5 176.7
06:50 17.4 97.2 1020.6 0.0 NNE 0.0 NNW 0.0 93.8 173.5
06:55 17.7 97.1 1020.6 0.0 NNE 0.0 NNW 0.0 93.1 362.7
07:00 18.3 96.3 1020.6 0.0 NNE 0.0 NNW 0.0 90.7 409.5
07:05 18.9 95.1 1020.6 0.0 NNE 0.0 E 0.0 87.9 413.3
07:10 19.1 93.6 1020.6 0.0 NNE 0.0 NNE 0.0 85.3 426.4
07:15 19.4 92.1 1020.7 0.0 NNE 0.0 E 0.0 83.5 440.9
07:20 20.0 89.5 1020.7 0.0 NNE 0.0 NNE 0.0 81.3 456.8
07:25 20.4 85.8 1020.7 0.0 NNE 0.0 NE 0.0 79.0 470.2
07:30 20.6 85.6 1020.7 0.0 NNE 0.0 ENE 0.0 77.0 483.8
07:35 21.0 84.8 1020.8 0.0 NNE 0.0 NE 0.0 75.5 500.5
07:40 21.4 83.4 1020.8 0.0 NNE 0.0 N 0.0 73.8 514.3
07:45 21.8 81.9 1020.7 0.0 NNE 0.0 NE 0.0 71.9 525.0
07:50 21.9 80.9 1020.8 0.0 NNE 0.0 E 0.0 70.1 540.7
07:55 22.1 80.8 1020.7 0.0 NNE 0.0 NE 0.0 68.6 555.3
08:00 22.0 81.3 1020.7 0.0 NNE 0.0 ENE 0.0 67.3 568.1
08:05 22.5 79.4 1020.7 0.0 NNE 0.0 NNE 0.0 66.1 580.8
08:10 22.8 77.9 1020.6 0.0 NNE 0.0 NNE 0.0 64.4 593.8
08:15 23.0 78.3 1020.7 0.0 NNE 0.0 ENE 0.0 62.9 606.8
08:20 23.1 77.8 1020.6 0.0 NNE 0.0 ENE 0.0 61.7 620.5
08:25 22.9 78.4 1020.6 0.0 NNE 0.0 ENE 0.0 60.7 633.0
08:30 23.2 77.2 1020.6 3.9 ENE 8.8 NE 0.0 59.7 644.2
08:35 23.3 76.7 1020.6 5.0 ENE 8.8 ENE 0.0 58.6 656.2
08:40 23.8 75.3 1020.5 3.2 NE 8.8 NNE 0.0 57.9 668.7
08:45 24.1 73.2 1020.4 1.9 ENE 6.1 NE 0.0 56.8 681.2
08:50 24.3 73.2 1020.3 3.7 E 6.1 ESE 0.0 55.5 692.7
08:55 24.6 72.7 1020.3 5.6 ENE 11.5 NE 0.0 54.4 704.5
09:00 24.5 72.8 1020.3 6.4 ENE 8.8 ENE 0.0 53.4 715.4
09:05 24.5 71.7 1020.3 6.8 ENE 11.5 ENE 0.0 52.6 724.2
09:10 24.7 69.8 1020.3 6.3 ENE 11.5 E 0.0 51.8 735.0
09:15 25.2 68.1 1020.3 6.6 ENE 11.5 ENE 0.0 50.9 743.9
09:20 25.4 67.4 1020.3 6.8 ENE 11.5 ENE 0.0 50.0 751.3
09:25 25.5 64.7 1020.3 4.5 E 11.5 ENE 0.0 49.2 763.3
09:30 25.9 57.9 1020.3 3.0 E 8.8 ESE 0.0 48.3 771.8
09:35 26.2 56.8 1020.3 5.2 E 8.8 NE 0.0 47.0 779.2
09:40 26.4 53.6 1020.3 3.5 SE 8.8 E 0.0 46.0 788.5
09:45 26.6 50.9 1020.3 2.5 SE 8.8 ESE 0.0 44.8 797.5
09:50 27.0 50.1 1020.3 1.5 SSE 8.8 SE 0.0 43.7 808.0
09:55 27.0 45.9 1020.3 0.1 ENE 3.4 ENE 0.0 42.3 814.0
10:00 27.5 43.8 1020.2 1.6 NNE 11.5 NNE 0.0 41.1 823.0
10:05 27.9 41.8 1020.2 0.7 ENE 8.8 ENE 0.0 39.8 827.0
10:10 27.5 46.6 1020.2 6.6 E 11.5 ENE 0.0 38.3 836.0
10:15 27.4 47.9 1020.1 1.8 ESE 8.8 E 0.0 37.8 840.0
10:20 28.3 44.7 1020.1 3.6 ENE 11.5 NE 0.0 36.9 846.0
10:25 28.1 41.4 1020.1 2.6 S 8.8 E 0.0 35.5 851.0
10:30 28.4 40.1 1020.1 2.5 SSE 8.8 SSE 0.0 34.3 856.0
10:35 28.4 38.1 1020.1 5.4 S 16.9 SSE 0.0 33.2 861.0
10:40 28.7 39.2 1020.1 3.1 SSE 8.8 SSW 0.0 32.3 864.0
10:45 28.7 40.7 1020.0 4.0 S 11.5 SW 0.0 31.2 868.0
10:50 28.3 40.5 1020.0 4.8 E 11.5 W 0.0 30.0 870.0
10:55 28.8 42.4 1019.9 1.1 E 8.8 NE 0.0 29.9 873.0
11:00 29.3 42.4 1019.9 1.0 W 6.1 NE 0.0 29.2 875.0
11:05 29.5 39.8 1019.9 2.9 W 11.5 WNW 0.0 28.1 879.0
11:10 29.2 41.9 1019.9 1.9 NE 8.8 NW 0.0 27.3 879.0
11:15 29.6 40.8 1019.8 2.4 W 8.8 W 0.0 26.6 880.0
11:20 29.4 41.6 1019.8 4.1 ENE 8.8 NE 0.0 25.6 881.0
11:25 29.6 43.2 1019.8 2.3 SSE 11.5 SE 0.0 25.6 881.0
11:30 29.8 40.0 1019.7 0.4 NE 8.8 ENE 0.0 25.0 882.0
11:35 29.5 41.8 1019.7 2.9 NE 8.8 NW 0.0 24.1 883.0
11:40 29.6 42.6 1019.6 3.8 NE 11.5 NE 0.0 23.6 884.0
11:45 29.5 42.1 1019.6 3.0 NNE 11.5 NNE 0.0 23.1 881.0
11:50 29.2 42.0 1019.5 5.2 SSW 11.5 WSW 0.0 22.4 880.0
11:55 29.5 43.3 1019.6 3.6 W 8.8 WSW 0.0 22.1 880.0
12:00 29.4 41.5 1019.5 0.4 SSW 6.1 SSW 0.0 21.6 877.0
12:05 29.6 43.4 1019.5 0.9 WSW 8.8 W 0.0 21.3 875.0
12:10 29.9 41.4 1019.4 2.9 W 11.5 W 0.0 20.8 876.0
12:15 29.8 41.6 1019.4 1.2 W 8.8 W 0.0 20.3 873.0
12:20 29.6 42.3 1019.3 3.8 ENE 14.2 NE 0.0 19.7 869.0
12:25 28.9 43.2 1019.2 8.9 ENE 14.2 ENE 0.0 19.1 864.0
12:30 29.0 45.9 1019.2 5.6 ENE 14.2 E 0.0 19.3 858.0
12:35 29.4 46.4 1019.1 8.1 ENE 16.9 E 0.0 19.3 855.0
12:40 29.2 47.2 1019.1 8.5 ENE 14.2 E 0.0 19.0 800.0
12:45 29.5 46.6 1019.1 5.8 ENE 11.5 E 0.0 19.3 848.0
12:50 29.4 44.4 1019.1 7.1 ENE 14.2 E 0.0 18.9 843.0
12:55 29.3 44.3 1019.0 4.9 E 14.2 ENE 0.0 18.5 838.0
13:00 29.5 43.1 1019.0 2.6 ENE 8.8 NE 0.0 18.6 835.0
13:05 29.7 42.6 1019.0 4.8 SE 8.8 SE 0.0 18.3 830.0
13:10 29.9 39.9 1018.9 1.8 SSW 8.8 SE 0.0 17.8 829.0
13:15 30.3 37.5 1018.9 0.0 NNE 0.0 SW 0.0 17.7 826.0
13:20 30.8 36.5 1018.8 0.0 NNE 0.0 SSW 0.0 17.5 818.0
13:25 30.7 35.0 1018.7 0.7 NNE 8.8 NNE 0.0 17.0 810.0
13:30 30.9 35.9 1018.7 2.9 NNE 11.5 NE 0.0 16.7 801.0
13:35 30.9 37.9 1018.7 1.6 ESE 8.8 ENE 0.0 16.6 790.6
13:40 30.8 38.0 1018.6 1.7 SE 11.5 SSE 0.0 16.1 782.2
13:45 30.7 38.7 1018.6 0.0 W 3.4 W 0.0 16.0 775.1
13:50 31.0 37.5 1018.5 0.0 NNE 0.0 NW 0.0 15.9 768.2
13:55 30.7 38.3 1018.4 0.0 NNE 0.0 WSW 0.0 15.6 761.2
14:00 31.1 38.0 1018.4 0.0 NNE 0.0 SW 0.0 15.7 754.8
14:05 31.0 37.1 1018.4 1.0 SW 11.5 S 0.0 15.2 742.5
14:10 30.6 36.7 1018.3 0.4 SSW 8.8 SE 0.0 14.7 729.9
14:15 30.7 39.6 1018.3 3.2 SSW 14.2 SSW 0.0 14.7 726.1
14:20 30.9 37.9 1018.2 2.8 SSW 11.5 SSE 0.0 14.6 716.9
14:25 31.0 37.2 1018.3 6.3 WSW 16.9 W 0.0 14.4 708.9
14:30 31.0 35.4 1018.2 1.7 W 11.5 NW 0.0 14.2 694.9
14:35 31.0 34.9 1018.1 0.2 N 6.1 NNE 0.0 13.9 684.3
14:40 31.2 35.9 1018.1 0.1 NE 11.5 NNE 0.0 14.1 669.3
14:45 31.2 36.4 1018.0 0.0 NNE 0.0 NNW 0.0 13.7 663.8
14:50 31.4 35.9 1018.0 0.1 NNE 6.1 NNE 0.0 13.6 657.6
14:55 31.3 34.8 1018.0 0.0 NNE 0.0 NE 0.0 13.5 646.8
15:00 31.4 33.9 1018.0 0.0 NW 3.4 W 0.0 13.1 632.9
15:05 31.4 35.5 1017.9 0.0 NNE 0.0 NNE 0.0 13.0 620.2
15:10 31.0 35.8 1017.9 0.0 NNE 0.0 NNE 0.0 12.9 602.1
15:15 31.2 35.2 1017.9 0.0 NNE 0.0 E 0.0 12.9 594.2
15:20 31.5 35.2 1017.8 0.0 NNE 0.0 NNW 0.0 12.9 583.9
15:25 31.6 35.2 1017.8 0.0 NNE 0.0 NNE 0.0 12.6 572.5
15:30 32.0 34.6 1017.7 0.0 NNE 0.0 NE 0.0 12.7 562.4
15:35 31.6 34.2 1017.7 0.0 NNE 0.0 W 0.0 12.0 548.6
15:40 31.3 34.4 1017.6 0.0 NNE 0.0 WNW 0.0 12.0 534.1
15:45 31.9 35.0 1017.5 0.0 NNE 0.0 WSW 0.0 12.3 519.5
15:50 31.4 34.4 1017.5 0.0 NNE 0.0 NE 0.0 11.8 506.6
15:55 31.0 33.7 1017.5 0.0 NNE 0.0 NE 0.0 11.7 493.5
16:00 31.0 36.1 1017.4 0.0 NNE 0.0 NE 0.0 12.1 478.6
16:05 30.8 37.1 1017.4 0.0 NNE 0.0 ENE 0.0 11.5 465.4
16:10 30.8 40.3 1017.4 0.0 NNE 0.0 ENE 0.0 11.7 414.2
16:15 31.1 37.6 1017.3 0.0 NNE 0.0 WSW 0.0 11.7 441.4
16:20 31.0 36.7 1017.3 0.1 NNE 8.8 NNE 0.0 11.6 427.0
16:25 30.9 37.5 1017.2 0.0 NNE 0.0 NW 0.0 11.4 409.0
16:30 30.7 38.7 1017.2 0.0 NNE 0.0 NE 0.0 11.3 395.1
16:35 30.8 42.1 1017.2 0.0 W 3.4 WSW 0.0 11.4 380.8
16:40 30.9 43.0 1017.2 0.0 NNE 0.0 WSW 0.0 11.4 366.4
16:45 30.9 42.4 1017.3 0.0 NNE 0.0 WNW 0.0 11.6 353.4
16:50 30.4 44.5 1017.3 0.0 NNE 0.0 ENE 0.0 11.6 337.2
16:55 29.7 46.8 1017.2 0.0 NNE 0.0 NE 0.0 11.5 292.1
Màxima 32.3 99.0 1021.3 8.9 ENE 16.9 W 0.0 102.1 884.0
Mínima 15.1 33.7 1017.2 11.3
Total 0.0